ADDS METAR Data INFO
IDs: Format: Raw Decoded Include TAF

Data at: 0308 UTC 17 Jan 2018

METAR for:KTMB (Miami/Kendall-Tamian, FL, US)
Text:KTMB 170253Z 36006KT 10SM BKN090 18/12 A3024 RMK AO2 SLP241 T01780117 51010
Temperature: 17.8°C ( 64°F)
Dewpoint: 11.7°C ( 53°F) [RH = 67%]
Pressure (altimeter):30.24 inches Hg (1024.1 mb) [Sea level pressure: 1024.1 mb]
Winds:from the N (360 degrees) at 7 MPH (6 knots; 3.1 m/s)
Visibility:10 or more sm (16+ km)
Ceiling:9000 feet AGL
Clouds: broken clouds at 9000 feet AGL